Time;durP1;ratioP1;P1;durP2;ratioP2;P2;SDS_P1;SDS_P2;PMS_P1;PMS_P2;Temp;Humidity;BMP_temperature;BMP_pressure;BME280_temperature;BME280_humidity;BME280_pressure;Samples;Min_cycle;Max_cycle;Signal;HPM_P1;HPM_P2
2020/12/03 00:01:52;;;;;;;;;;;;;;;;;;5069560;28;20377;-69
2020/12/03 00:04:18;;;;;;;;;;;;;;;;;;5069610;28;19917;-69
2020/12/03 00:06:52;;;;;;;;;;;;;;;;;;5085926;28;19926;-69
2020/12/03 00:09:18;;;;;;;;;;;;;;;;;;5069108;28;20326;-69
2020/12/03 00:11:45;;;;;;;;;;;;;;;;;;5052861;28;19927;-69
2020/12/03 00:14:11;;;;;;;;;;;;;;;;;;5052707;28;20330;-70
2020/12/03 00:16:36;;;;;;;;;;;;;;;;;;5086093;28;20335;-68
2020/12/03 00:19:03;;;;;;;;;;;;;;;;;;5032657;28;19916;-69
2020/12/03 00:21:52;;;;;;;;;;;;;;;;;;5062097;28;19917;-69
2020/12/03 00:24:19;;;;;;;;;;;;;;;;;;5041364;28;19923;-68
2020/12/03 00:26:45;;;;;;;;;;;;;;;;;;5069756;28;20279;-69
2020/12/03 00:29:11;;;;;;;;;;;;;;;;;;5069025;28;19917;-69
2020/12/03 00:31:37;;;;;;;;;;;;;;;;;;5087368;28;19962;-68
2020/12/03 00:34:03;;;;;;;;;;;;;;;;;;5040003;28;19987;-68
2020/12/03 00:36:28;;;;;;;;;;;;;;;;;;5068294;28;19920;-69
2020/12/03 00:38:54;;;;;;;;;;;;;;;;;;5067505;28;20365;-69
2020/12/03 00:41:19;;;;;;;;;;;;;;;;;;5030115;28;19932;-70
2020/12/03 00:43:45;;;;;;;;;;;;;;;;;;5060122;28;20052;-68
2020/12/03 00:46:11;;;;;;;;;;;;;;;;;;5025469;28;19924;-69
2020/12/03 00:48:36;;;;;;;;;;;;;;;;;;5058018;28;20284;-68
2020/12/03 00:51:03;;;;;;;;;;;;;;;;;;5048086;28;19933;-69
2020/12/03 00:53:29;;;;;;;;;;;;;;;;;;5048256;28;19964;-69
2020/12/03 00:55:54;;;;;;;;;;;;;;;;;;5048441;28;19944;-69
2020/12/03 00:58:20;;;;;;;;;;;;;;;;;;5031858;28;19916;-69
2020/12/03 01:00:46;;;;;;;;;;;;;;;;;;5011681;28;20397;-68
2020/12/03 01:03:11;;;;;;;;;;;;;;;;;;5028749;28;19917;-69
2020/12/03 01:05:37;;;;;;;;;;;;;;;;;;5065166;28;19917;-69
2020/12/03 01:08:02;;;;;;;;;;;;;;;;;;5032811;28;19943;-69
2020/12/03 01:10:30;;;;;;;;;;;;;;;;;;5064670;28;20051;-68
2020/12/03 01:12:56;;;;;;;;;;;;;;;;;;5032018;28;19968;-69
2020/12/03 01:15:22;;;;;;;;;;;;;;;;;;5027556;28;19971;-69
2020/12/03 01:17:48;;;;;;;;;;;;;;;;;;5022825;28;20368;-69
2020/12/03 01:20:18;;;;;;;;;;;;;;;;;;5047789;28;19925;-68
2020/12/03 01:22:44;;;;;;;;;;;;;;;;;;5028441;28;20379;-68
2020/12/03 01:25:09;;;;;;;;;;;;;;;;;;5060432;28;20273;-69
2020/12/03 01:27:35;;;;;;;;;;;;;;;;;;5064295;28;19917;-68
2020/12/03 01:30:02;;;;;;;;;;;;;;;;;;5031093;28;19917;-70
2020/12/03 01:32:27;;;;;;;;;;;;;;;;;;5039463;28;20238;-69
2020/12/03 01:34:53;;;;;;;;;;;;;;;;;;5061827;28;19931;-68
2020/12/03 01:37:18;;;;;;;;;;;;;;;;;;5070768;28;19963;-69
2020/12/03 01:39:44;;;;;;;;;;;;;;;;;;5070859;28;19917;-69
2020/12/03 01:42:10;;;;;;;;;;;;;;;;;;5054151;28;20393;-69
2020/12/03 01:44:37;;;;;;;;;;;;;;;;;;5070683;28;20001;-69
2020/12/03 01:47:03;;;;;;;;;;;;;;;;;;5070771;28;19932;-70
2020/12/03 01:49:30;;;;;;;;;;;;;;;;;;5074025;28;20337;-68
2020/12/03 01:51:55;;;;;;;;;;;;;;;;;;5087764;28;19921;-69
2020/12/03 01:54:21;;;;;;;;;;;;;;;;;;5053929;28;19916;-70
2020/12/03 01:56:52;;;;;;;;;;;;;;;;;;5070831;28;20368;-69
2020/12/03 01:59:18;;;;;;;;;;;;;;;;;;5060087;28;19940;-69
2020/12/03 02:01:43;;;;;;;;;;;;;;;;;;5053256;28;19921;-69
2020/12/03 02:04:09;;;;;;;;;;;;;;;;;;5070816;28;20018;-69
2020/12/03 02:06:36;;;;;;;;;;;;;;;;;;5037328;28;20007;-68
2020/12/03 02:09:02;;;;;;;;;;;;;;;;;;5053900;28;19974;-69
2020/12/03 02:11:28;;;;;;;;;;;;;;;;;;5054165;28;19939;-69
2020/12/03 02:13:53;;;;;;;;;;;;;;;;;;5087444;28;19932;-69
2020/12/03 02:16:19;;;;;;;;;;;;;;;;;;5070903;28;19974;-69
2020/12/03 02:18:46;;;;;;;;;;;;;;;;;;5070061;28;19916;-69
2020/12/03 02:21:11;;;;;;;;;;;;;;;;;;5070452;28;19927;-69
2020/12/03 02:23:37;;;;;;;;;;;;;;;;;;5037326;28;19916;-69
2020/12/03 02:26:02;;;;;;;;;;;;;;;;;;5070504;28;20422;-69
2020/12/03 02:28:28;;;;;;;;;;;;;;;;;;5063678;28;19917;-68
2020/12/03 02:30:53;;;;;;;;;;;;;;;;;;5069868;28;19920;-70
2020/12/03 02:33:19;;;;;;;;;;;;;;;;;;5053488;28;20266;-70
2020/12/03 02:35:44;;;;;;;;;;;;;;;;;;5086811;28;19925;-69
2020/12/03 02:38:10;;;;;;;;;;;;;;;;;;5070236;28;19917;-69
2020/12/03 02:40:35;;;;;;;;;;;;;;;;;;5069986;28;19928;-69
2020/12/03 02:43:01;;;;;;;;;;;;;;;;;;5070432;28;19916;-69
2020/12/03 02:45:26;;;;;;;;;;;;;;;;;;5073582;28;20396;-69
2020/12/03 02:47:52;;;;;;;;;;;;;;;;;;5074325;28;19917;-69
2020/12/03 02:50:17;;;;;;;;;;;;;;;;;;5074976;28;20326;-70
2020/12/03 02:52:43;;;;;;;;;;;;;;;;;;5075034;28;20019;-69
2020/12/03 02:55:08;;;;;;;;;;;;;;;;;;5081007;28;20360;-69
2020/12/03 02:57:34;;;;;;;;;;;;;;;;;;5098096;28;19928;-69
2020/12/03 03:00:00;;;;;;;;;;;;;;;;;;5056837;28;20292;-69
2020/12/03 03:02:25;;;;;;;;;;;;;;;;;;5074108;28;20014;-69
2020/12/03 03:04:51;;;;;;;;;;;;;;;;;;5074820;28;19966;-69
2020/12/03 03:07:16;;;;;;;;;;;;;;;;;;5066076;28;19920;-69
2020/12/03 03:09:42;;;;;;;;;;;;;;;;;;5045924;28;20288;-70
2020/12/03 03:12:07;;;;;;;;;;;;;;;;;;5073943;28;19923;-70
2020/12/03 03:14:33;;;;;;;;;;;;;;;;;;5073252;28;20386;-69
2020/12/03 03:16:58;;;;;;;;;;;;;;;;;;5087654;28;20019;-69
2020/12/03 03:19:24;;;;;;;;;;;;;;;;;;5060631;28;19943;-69
2020/12/03 03:21:50;;;;;;;;;;;;;;;;;;5053008;28;19996;-69
2020/12/03 03:24:15;;;;;;;;;;;;;;;;;;5056635;28;19977;-70
2020/12/03 03:26:41;;;;;;;;;;;;;;;;;;5073157;28;20328;-69
2020/12/03 03:29:07;;;;;;;;;;;;;;;;;;5056109;28;19962;-69
2020/12/03 03:31:32;;;;;;;;;;;;;;;;;;5073337;28;19942;-69
2020/12/03 03:33:58;;;;;;;;;;;;;;;;;;5089624;28;19955;-68
2020/12/03 03:36:23;;;;;;;;;;;;;;;;;;5073300;28;19986;-69
2020/12/03 03:38:49;;;;;;;;;;;;;;;;;;5071288;28;19921;-69
2020/12/03 03:41:14;;;;;;;;;;;;;;;;;;5068794;28;19927;-69
2020/12/03 03:43:40;;;;;;;;;;;;;;;;;;5056305;28;19927;-68
2020/12/03 03:46:06;;;;;;;;;;;;;;;;;;5073339;28;19920;-68
2020/12/03 03:48:31;;;;;;;;;;;;;;;;;;5073690;28;19916;-70
2020/12/03 03:50:57;;;;;;;;;;;;;;;;;;5078996;28;20002;-68
2020/12/03 03:53:23;;;;;;;;;;;;;;;;;;5092211;28;19985;-68
2020/12/03 03:55:49;;;;;;;;;;;;;;;;;;5078426;28;19930;-68
2020/12/03 03:58:14;;;;;;;;;;;;;;;;;;5094230;28;19916;-69
2020/12/03 04:00:44;;;;;;;;;;;;;;;;;;5109441;28;19951;-69
2020/12/03 04:03:13;;;;;;;;;;;;;;;;;;5093135;28;19995;-69
2020/12/03 04:05:39;;;;;;;;;;;;;;;;;;5073075;28;19972;-69
2020/12/03 04:08:04;;;;;;;;;;;;;;;;;;5067073;28;19916;-70
2020/12/03 04:10:30;;;;;;;;;;;;;;;;;;5092490;28;20022;-69
2020/12/03 04:12:55;;;;;;;;;;;;;;;;;;5092601;28;19923;-69
2020/12/03 04:15:21;;;;;;;;;;;;;;;;;;5108725;28;19924;-69
2020/12/03 04:17:46;;;;;;;;;;;;;;;;;;5092802;28;20419;-68
2020/12/03 04:20:13;;;;;;;;;;;;;;;;;;5075252;28;19952;-69
2020/12/03 04:22:38;;;;;;;;;;;;;;;;;;5078386;28;19980;-68
2020/12/03 04:25:04;;;;;;;;;;;;;;;;;;5075425;28;20305;-69
2020/12/03 04:27:29;;;;;;;;;;;;;;;;;;5075214;28;19931;-69
2020/12/03 04:29:56;;;;;;;;;;;;;;;;;;5067123;28;19916;-69
2020/12/03 04:32:22;;;;;;;;;;;;;;;;;;5069280;28;20367;-70
2020/12/03 04:34:47;;;;;;;;;;;;;;;;;;5108680;28;20005;-68
2020/12/03 04:37:12;;;;;;;;;;;;;;;;;;5109454;28;19924;-68
2020/12/03 04:39:38;;;;;;;;;;;;;;;;;;5077417;28;19952;-69
2020/12/03 04:42:03;;;;;;;;;;;;;;;;;;5091853;28;19920;-69
2020/12/03 04:44:33;;;;;;;;;;;;;;;;;;5091506;28;19982;-68
2020/12/03 04:47:17;;;;;;;;;;;;;;;;;;5074863;28;19916;-69
2020/12/03 04:49:56;;;;;;;;;;;;;;;;;;5071634;28;19924;-68
2020/12/03 04:52:28;;;;;;;;;;;;;;;;;;5032724;28;19916;-69
2020/12/03 04:54:53;;;;;;;;;;;;;;;;;;5091599;28;20245;-68
2020/12/03 04:57:34;;;;;;;;;;;;;;;;;;5083646;28;20045;-68
2020/12/03 05:00:18;;;;;;;;;;;;;;;;;;5070796;28;20284;-69
2020/12/03 05:02:49;;;;;;;;;;;;;;;;;;5043813;28;19952;-68
2020/12/03 05:05:15;;;;;;;;;;;;;;;;;;5088488;28;19955;-68
2020/12/03 05:07:41;;;;;;;;;;;;;;;;;;5082836;28;19955;-69
2020/12/03 05:10:19;;;;;;;;;;;;;;;;;;5072920;28;20348;-69
2020/12/03 05:12:44;;;;;;;;;;;;;;;;;;5048674;28;19916;-67
2020/12/03 05:15:17;;;;;;;;;;;;;;;;;;5051752;28;19923;-69
2020/12/03 05:17:42;;;;;;;;;;;;;;;;;;5029894;28;19920;-69
2020/12/03 05:20:11;;;;;;;;;;;;;;;;;;5060477;28;19929;-69
2020/12/03 05:22:38;;;;;;;;;;;;;;;;;;5092651;28;19916;-68
2020/12/03 05:25:04;;;;;;;;;;;;;;;;;;5077983;28;19921;-69
2020/12/03 05:27:30;;;;;;;;;;;;;;;;;;5107583;28;19927;-69
2020/12/03 05:29:56;;;;;;;;;;;;;;;;;;5074613;28;19916;-69
2020/12/03 05:32:21;;;;;;;;;;;;;;;;;;5094330;28;19916;-68
2020/12/03 05:34:47;;;;;;;;;;;;;;;;;;5073899;28;20015;-68
2020/12/03 05:37:15;;;;;;;;;;;;;;;;;;5074093;28;20393;-69
2020/12/03 05:39:45;;;;;;;;;;;;;;;;;;5087888;28;19936;-69
2020/12/03 05:42:12;;;;;;;;;;;;;;;;;;5094106;28;19927;-69
2020/12/03 05:44:41;;;;;;;;;;;;;;;;;;5087826;28;19923;-69
2020/12/03 05:47:16;;;;;;;;;;;;;;;;;;5071821;28;20341;-69
2020/12/03 05:49:41;;;;;;;;;;;;;;;;;;5070837;28;19970;-69
2020/12/03 05:52:20;;;;;;;;;;;;;;;;;;5099584;28;20282;-70
2020/12/03 05:54:56;;;;;;;;;;;;;;;;;;5091730;28;19916;-69
2020/12/03 05:57:23;;;;;;;;;;;;;;;;;;5075338;28;19920;-68
2020/12/03 05:59:50;;;;;;;;;;;;;;;;;;5090990;28;20375;-69
2020/12/03 06:02:18;;;;;;;;;;;;;;;;;;5091436;28;19916;-69
2020/12/03 06:04:48;;;;;;;;;;;;;;;;;;5092284;28;20303;-69
2020/12/03 06:07:17;;;;;;;;;;;;;;;;;;5064188;28;19980;-69
2020/12/03 06:10:01;;;;;;;;;;;;;;;;;;5092267;28;19916;-68
2020/12/03 06:12:35;;;;;;;;;;;;;;;;;;5061063;28;20367;-68
2020/12/03 06:15:29;;;;;;;;;;;;;;;;;;5071037;28;20082;-70
2020/12/03 06:17:58;;;;;;;;;;;;;;;;;;5074194;28;19922;-71
2020/12/03 06:20:44;;;;;;;;;;;;;;;;;;5078733;28;20265;-70
2020/12/03 06:23:09;;;;;;;;;;;;;;;;;;5082956;28;19939;-71
2020/12/03 06:25:50;;;;;;;;;;;;;;;;;;5101383;28;20332;-69
2020/12/03 06:28:30;;;;;;;;;;;;;;;;;;5115479;28;19916;-68
2020/12/03 06:31:06;;;;;;;;;;;;;;;;;;5082477;28;20030;-68
2020/12/03 06:33:36;;;;;;;;;;;;;;;;;;5047236;28;19939;-70
2020/12/03 06:36:04;;;;;;;;;;;;;;;;;;5097919;28;19943;-70
2020/12/03 06:38:34;;;;;;;;;;;;;;;;;;5098002;28;20030;-69
2020/12/03 06:41:18;;;;;;;;;;;;;;;;;;5114228;28;19919;-70
2020/12/03 06:44:03;;;;;;;;;;;;;;;;;;5051489;28;19964;-69
2020/12/03 06:46:43;;;;;;;;;;;;;;;;;;5073148;28;19916;-70
2020/12/03 06:49:21;;;;;;;;;;;;;;;;;;5061146;28;19920;-70
2020/12/03 06:52:06;;;;;;;;;;;;;;;;;;5042143;28;19916;-69
2020/12/03 06:54:50;;;;;;;;;;;;;;;;;;5061159;28;19923;-70
2020/12/03 06:57:16;;;;;;;;;;;;;;;;;;5072147;28;19940;-70
2020/12/03 06:59:41;;;;;;;;;;;;;;;;;;5063574;28;19956;-68
2020/12/03 07:02:26;;;;;;;;;;;;;;;;;;5066043;28;19916;-68
2020/12/03 07:05:01;;;;;;;;;;;;;;;;;;5067728;28;19956;-68
2020/12/03 07:07:46;;;;;;;;;;;;;;;;;;5023108;28;19916;-68
2020/12/03 07:10:30;;;;;;;;;;;;;;;;;;5072284;28;19920;-68
2020/12/03 07:13:02;;;;;;;;;;;;;;;;;;5062500;28;19916;-67
2020/12/03 07:15:40;;;;;;;;;;;;;;;;;;5059098;28;19960;-67
2020/12/03 07:18:09;;;;;;;;;;;;;;;;;;5064688;28;19916;-69
2020/12/03 07:20:42;;;;;;;;;;;;;;;;;;5076792;28;19920;-68
2020/12/03 07:23:09;;;;;;;;;;;;;;;;;;5055953;28;19981;-67
2020/12/03 07:25:35;;;;;;;;;;;;;;;;;;5075139;28;19923;-67
2020/12/03 07:28:19;;;;;;;;;;;;;;;;;;5066923;28;19931;-67
2020/12/03 07:30:54;;;;;;;;;;;;;;;;;;5071540;28;19924;-67
2020/12/03 07:33:40;;;;;;;;;;;;;;;;;;5038731;28;19920;-68
2020/12/03 07:36:24;;;;;;;;;;;;;;;;;;5064382;28;20318;-67
2020/12/03 07:38:52;;;;;;;;;;;;;;;;;;5056130;28;19932;-68
2020/12/03 07:41:20;;;;;;;;;;;;;;;;;;5084814;28;20323;-69
2020/12/03 07:43:45;;;;;;;;;;;;;;;;;;5050035;28;20023;-68
2020/12/03 07:46:24;;;;;;;;;;;;;;;;;;5038767;28;20110;-68
2020/12/03 07:48:49;;;;;;;;;;;;;;;;;;5070160;28;19928;-66
2020/12/03 07:51:15;;;;;;;;;;;;;;;;;;5049296;28;19927;-69
2020/12/03 07:53:41;;;;;;;;;;;;;;;;;;5029465;28;20238;-67
2020/12/03 07:56:25;;;;;;;;;;;;;;;;;;5090035;28;20355;-67
2020/12/03 07:58:51;;;;;;;;;;;;;;;;;;5044079;28;20416;-68
2020/12/03 08:01:26;;;;;;;;;;;;;;;;;;5047325;28;19971;-67
2020/12/03 08:03:58;;;;;;;;;;;;;;;;;;5032223;28;19941;-67
2020/12/03 08:06:24;;;;;;;;;;;;;;;;;;5068351;28;19935;-67
2020/12/03 08:08:51;;;;;;;;;;;;;;;;;;5049464;28;19925;-69
2020/12/03 08:11:34;;;;;;;;;;;;;;;;;;5053795;28;19920;-69
2020/12/03 08:14:00;;;;;;;;;;;;;;;;;;5055425;28;20019;-68
2020/12/03 08:16:40;;;;;;;;;;;;;;;;;;5027858;28;20376;-68
2020/12/03 08:19:16;;;;;;;;;;;;;;;;;;5023465;28;19993;-69
2020/12/03 08:21:42;;;;;;;;;;;;;;;;;;5038009;28;19966;-70
2020/12/03 08:24:18;;;;;;;;;;;;;;;;;;5069746;28;19964;-70
2020/12/03 08:26:48;;;;;;;;;;;;;;;;;;5054047;28;19969;-69
2020/12/03 08:29:19;;;;;;;;;;;;;;;;;;5086214;28;19924;-68
2020/12/03 08:31:44;;;;;;;;;;;;;;;;;;5096342;28;19986;-69
2020/12/03 08:34:10;;;;;;;;;;;;;;;;;;5053780;28;19996;-69
2020/12/03 08:36:35;;;;;;;;;;;;;;;;;;5054831;28;19973;-69
2020/12/03 08:39:01;;;;;;;;;;;;;;;;;;5077211;28;19920;-69
2020/12/03 08:41:27;;;;;;;;;;;;;;;;;;5060366;28;19917;-69
2020/12/03 08:43:59;;;;;;;;;;;;;;;;;;5062960;28;19920;-69
2020/12/03 08:46:28;;;;;;;;;;;;;;;;;;5070046;28;19924;-68
2020/12/03 08:48:53;;;;;;;;;;;;;;;;;;5044310;28;19927;-70
2020/12/03 08:51:19;;;;;;;;;;;;;;;;;;5049197;28;19924;-70
2020/12/03 08:53:46;;;;;;;;;;;;;;;;;;5075367;28;19938;-68
2020/12/03 08:56:15;;;;;;;;;;;;;;;;;;5029212;28;19950;-68
2020/12/03 08:58:56;;;;;;;;;;;;;;;;;;5046818;28;19927;-68
2020/12/03 09:01:23;;;;;;;;;;;;;;;;;;5050689;28;20392;-67
2020/12/03 09:03:51;;;;;;;;;;;;;;;;;;5086653;28;19966;-67
2020/12/03 09:06:17;;;;;;;;;;;;;;;;;;5057006;28;19927;-66
2020/12/03 09:08:43;;;;;;;;;;;;;;;;;;5042188;28;19921;-67
2020/12/03 09:11:14;;;;;;;;;;;;;;;;;;5077360;28;19960;-67
2020/12/03 09:13:44;;;;;;;;;;;;;;;;;;5056101;28;19923;-68
2020/12/03 09:16:09;;;;;;;;;;;;;;;;;;5052646;28;19943;-71
2020/12/03 09:18:41;;;;;;;;;;;;;;;;;;5057376;28;19920;-69
2020/12/03 09:21:07;;;;;;;;;;;;;;;;;;5071274;28;19916;-67
2020/12/03 09:23:33;;;;;;;;;;;;;;;;;;5059448;28;19917;-69
2020/12/03 09:25:58;;;;;;;;;;;;;;;;;;5063938;28;20321;-70
2020/12/03 09:28:24;;;;;;;;;;;;;;;;;;5071118;28;19947;-67
2020/12/03 09:30:49;;;;;;;;;;;;;;;;;;5069910;28;19943;-68
2020/12/03 09:33:16;;;;;;;;;;;;;;;;;;5069120;28;19928;-69
2020/12/03 09:35:42;;;;;;;;;;;;;;;;;;5065819;28;20011;-70
2020/12/03 09:38:08;;;;;;;;;;;;;;;;;;5070563;28;20020;-72
2020/12/03 09:40:34;;;;;;;;;;;;;;;;;;5082807;28;20380;-71
2020/12/03 09:43:08;;;;;;;;;;;;;;;;;;5040010;28;19966;-71
2020/12/03 09:45:42;;;;;;;;;;;;;;;;;;5019966;28;19920;-72
2020/12/03 09:48:16;;;;;;;;;;;;;;;;;;5075281;28;20260;-70
2020/12/03 09:50:45;;;;;;;;;;;;;;;;;;5032603;28;20386;-70
2020/12/03 09:53:15;;;;;;;;;;;;;;;;;;5059479;28;19920;-69
2020/12/03 09:55:41;;;;;;;;;;;;;;;;;;5068945;28;20011;-69
2020/12/03 09:58:06;;;;;;;;;;;;;;;;;;5069032;28;19921;-70
2020/12/03 10:00:34;;;;;;;;;;;;;;;;;;5059150;28;19923;-70
2020/12/03 10:03:12;;;;;;;;;;;;;;;;;;5060522;28;19959;-72
2020/12/03 10:05:47;;;;;;;;;;;;;;;;;;5047044;28;19923;-70
2020/12/03 10:08:31;;;;;;;;;;;;;;;;;;5081910;28;19917;-70
2020/12/03 10:11:06;;;;;;;;;;;;;;;;;;5083109;28;19973;-69
2020/12/03 10:13:51;;;;;;;;;;;;;;;;;;5053013;28;19956;-69
2020/12/03 10:16:19;;;;;;;;;;;;;;;;;;5097676;28;19923;-70
2020/12/03 10:18:52;;;;;;;;;;;;;;;;;;5042233;28;19934;-69
2020/12/03 10:21:21;;;;;;;;;;;;;;;;;;5065045;28;19954;-70
2020/12/03 10:23:57;;;;;;;;;;;;;;;;;;5052771;28;20365;-70
2020/12/03 10:26:28;;;;;;;;;;;;;;;;;;5065903;28;20276;-69
2020/12/03 10:28:54;;;;;;;;;;;;;;;;;;5025342;28;20388;-69
2020/12/03 10:31:19;;;;;;;;;;;;;;;;;;5052939;28;19928;-73
2020/12/03 10:33:49;;;;;;;;;;;;;;;;;;5083001;28;20364;-73
2020/12/03 10:36:28;;;;;;;;;;;;;;;;;;5090638;28;20018;-74
2020/12/03 10:38:56;;;;;;;;;;;;;;;;;;5082357;28;20011;-74
2020/12/03 10:41:31;;;;;;;;;;;;;;;;;;5068242;28;19945;-73
2020/12/03 10:43:57;;;;;;;;;;;;;;;;;;5103850;28;20019;-73
2020/12/03 10:46:24;;;;;;;;;;;;;;;;;;5089315;28;19978;-73
2020/12/03 10:48:49;;;;;;;;;;;;;;;;;;5084211;28;19920;-73
2020/12/03 10:51:17;;;;;;;;;;;;;;;;;;5087788;28;19916;-74
2020/12/03 10:53:47;;;;;;;;;;;;;;;;;;5072399;28;20003;-74
2020/12/03 10:56:12;;;;;;;;;;;;;;;;;;5066915;28;19920;-72
2020/12/03 10:58:45;;;;;;;;;;;;;;;;;;5063458;28;20015;-71
2020/12/03 11:01:19;;;;;;;;;;;;;;;;;;5018966;28;20346;-71
2020/12/03 11:03:45;;;;;;;;;;;;;;;;;;5070704;28;19921;-71
2020/12/03 11:06:11;;;;;;;;;;;;;;;;;;5070739;28;19918;-75
2020/12/03 11:08:38;;;;;;;;;;;;;;;;;;5024481;28;20404;-71
2020/12/03 11:11:04;;;;;;;;;;;;;;;;;;5036710;28;19956;-70
2020/12/03 11:13:30;;;;;;;;;;;;;;;;;;5065665;28;19920;-70
2020/12/03 11:15:56;;;;;;;;;;;;;;;;;;5055587;28;19924;-68
2020/12/03 11:18:22;;;;;;;;;;;;;;;;;;5073817;28;19917;-72
2020/12/03 11:20:52;;;;;;;;;;;;;;;;;;5086638;28;19916;-71
2020/12/03 11:23:21;;;;;;;;;;;;;;;;;;5067855;28;19943;-70
2020/12/03 11:25:48;;;;;;;;;;;;;;;;;;5047183;28;19943;-69
2020/12/03 11:28:23;;;;;;;;;;;;;;;;;;5061172;28;19923;-69
2020/12/03 11:30:54;;;;;;;;;;;;;;;;;;5077188;28;19920;-70
2020/12/03 11:33:23;;;;;;;;;;;;;;;;;;5047576;28;19921;-70
2020/12/03 11:35:48;;;;;;;;;;;;;;;;;;5080624;28;19920;-68
2020/12/03 11:38:13;;;;;;;;;;;;;;;;;;5052819;28;20260;-68
2020/12/03 11:40:46;;;;;;;;;;;;;;;;;;5047051;28;20017;-71
2020/12/03 11:48:57;;;;;;;;;;;;;;;;;;5069286;28;19921;-71
2020/12/03 11:51:26;;;;;;;;;;;;;;;;;;5076770;28;19916;-71
2020/12/03 11:54:05;;;;;;;;;;;;;;;;;;5052936;28;19943;-71
2020/12/03 11:56:31;;;;;;;;;;;;;;;;;;5102323;28;19928;-72
2020/12/03 11:59:12;;;;;;;;;;;;;;;;;;5079795;28;19948;-72
2020/12/03 12:01:37;;;;;;;;;;;;;;;;;;5066681;28;20363;-70
2020/12/03 12:04:05;;;;;;;;;;;;;;;;;;5059267;28;19931;-70
2020/12/03 12:06:45;;;;;;;;;;;;;;;;;;5053629;28;20433;-71
2020/12/03 12:09:26;;;;;;;;;;;;;;;;;;5068538;28;19923;-71
2020/12/03 12:11:52;;;;;;;;;;;;;;;;;;5067513;28;20081;-71
2020/12/03 12:14:18;;;;;;;;;;;;;;;;;;5024220;28;20042;-70
2020/12/03 12:16:45;;;;;;;;;;;;;;;;;;5052010;28;19947;-67
2020/12/03 12:19:10;;;;;;;;;;;;;;;;;;5043283;28;20007;-71
2020/12/03 12:21:37;;;;;;;;;;;;;;;;;;5089890;28;20066;-72
2020/12/03 12:24:03;;;;;;;;;;;;;;;;;;5096640;28;19916;-69
2020/12/03 12:26:28;;;;;;;;;;;;;;;;;;5077937;28;19960;-71
2020/12/03 12:28:54;;;;;;;;;;;;;;;;;;5059800;28;19925;-70
2020/12/03 12:31:20;;;;;;;;;;;;;;;;;;5045170;28;19920;-69
2020/12/03 12:33:46;;;;;;;;;;;;;;;;;;5067472;28;20337;-72
2020/12/03 12:36:11;;;;;;;;;;;;;;;;;;5058309;28;19948;-71
2020/12/03 12:38:37;;;;;;;;;;;;;;;;;;5095645;28;19923;-69
2020/12/03 12:41:02;;;;;;;;;;;;;;;;;;5064331;28;20291;-70
2020/12/03 12:43:28;;;;;;;;;;;;;;;;;;5078933;28;19921;-70
2020/12/03 12:45:53;;;;;;;;;;;;;;;;;;5054191;28;19920;-69
2020/12/03 12:48:19;;;;;;;;;;;;;;;;;;5082807;28;19924;-72
2020/12/03 12:50:47;;;;;;;;;;;;;;;;;;5023802;28;20467;-69
2020/12/03 12:53:13;;;;;;;;;;;;;;;;;;5052141;28;19920;-68
2020/12/03 12:55:39;;;;;;;;;;;;;;;;;;5033633;28;19951;-70
2020/12/03 12:58:04;;;;;;;;;;;;;;;;;;5032428;28;19932;-73
2020/12/03 13:00:30;;;;;;;;;;;;;;;;;;5057573;28;19927;-72
2020/12/03 13:02:55;;;;;;;;;;;;;;;;;;5057562;28;19927;-71
2020/12/03 13:05:21;;;;;;;;;;;;;;;;;;5084872;28;19917;-73
2020/12/03 13:07:47;;;;;;;;;;;;;;;;;;5074882;28;20003;-73
2020/12/03 13:10:14;;;;;;;;;;;;;;;;;;5054591;28;20007;-72
2020/12/03 13:12:40;;;;;;;;;;;;;;;;;;5082379;28;20412;-70
2020/12/03 13:15:05;;;;;;;;;;;;;;;;;;5066885;28;19970;-70
2020/12/03 13:17:31;;;;;;;;;;;;;;;;;;5065423;28;19920;-71
2020/12/03 13:19:56;;;;;;;;;;;;;;;;;;5067200;28;20376;-70
2020/12/03 13:22:22;;;;;;;;;;;;;;;;;;5072196;28;19929;-70
2020/12/03 13:24:47;;;;;;;;;;;;;;;;;;5053539;28;19917;-69
2020/12/03 13:27:13;;;;;;;;;;;;;;;;;;5072037;28;19920;-71
2020/12/03 13:29:40;;;;;;;;;;;;;;;;;;5067770;28;19920;-70
2020/12/03 13:32:05;;;;;;;;;;;;;;;;;;5049445;28;20336;-70
2020/12/03 13:34:31;;;;;;;;;;;;;;;;;;5043608;28;19927;-71
2020/12/03 13:36:57;;;;;;;;;;;;;;;;;;5001426;28;19945;-70
2020/12/03 13:39:22;;;;;;;;;;;;;;;;;;5025078;28;20019;-71
2020/12/03 13:41:48;;;;;;;;;;;;;;;;;;5030768;28;19917;-70
2020/12/03 13:44:14;;;;;;;;;;;;;;;;;;5032871;28;20373;-70
2020/12/03 13:46:40;;;;;;;;;;;;;;;;;;5047626;28;19952;-69
2020/12/03 13:49:06;;;;;;;;;;;;;;;;;;5032737;28;19917;-71
2020/12/03 13:51:32;;;;;;;;;;;;;;;;;;5054200;28;20270;-71
2020/12/03 13:53:57;;;;;;;;;;;;;;;;;;5025707;28;19937;-71
2020/12/03 13:56:23;;;;;;;;;;;;;;;;;;5036691;28;20436;-71
2020/12/03 13:58:49;;;;;;;;;;;;;;;;;;5046400;28;19964;-69
2020/12/03 14:01:14;;;;;;;;;;;;;;;;;;5014350;28;19925;-69
2020/12/03 14:03:40;;;;;;;;;;;;;;;;;;5068473;28;20015;-70
2020/12/03 14:06:05;;;;;;;;;;;;;;;;;;5029666;28;20387;-69
2020/12/03 14:08:31;;;;;;;;;;;;;;;;;;5014037;28;19968;-70
2020/12/03 14:10:57;;;;;;;;;;;;;;;;;;5056756;28;19952;-68
2020/12/03 14:13:22;;;;;;;;;;;;;;;;;;5046236;28;19964;-69
2020/12/03 14:15:48;;;;;;;;;;;;;;;;;;5029787;28;19998;-69
2020/12/03 14:18:14;;;;;;;;;;;;;;;;;;5019349;28;19924;-69
2020/12/03 14:20:40;;;;;;;;;;;;;;;;;;5045808;28;19925;-69
2020/12/03 14:23:05;;;;;;;;;;;;;;;;;;5047830;28;19986;-68
2020/12/03 14:25:31;;;;;;;;;;;;;;;;;;5063175;28;19921;-69
2020/12/03 14:27:56;;;;;;;;;;;;;;;;;;5041556;28;20055;-67
2020/12/03 14:30:22;;;;;;;;;;;;;;;;;;5017800;28;20031;-69
2020/12/03 14:32:48;;;;;;;;;;;;;;;;;;5071661;28;19943;-66
2020/12/03 14:35:14;;;;;;;;;;;;;;;;;;5066689;28;19916;-67
2020/12/03 14:37:39;;;;;;;;;;;;;;;;;;5073531;28;20008;-68
2020/12/03 14:40:07;;;;;;;;;;;;;;;;;;5096279;28;19920;-68
2020/12/03 14:42:35;;;;;;;;;;;;;;;;;;5094706;28;19925;-67
2020/12/03 14:45:04;;;;;;;;;;;;;;;;;;5065210;28;20438;-69
2020/12/03 14:47:31;;;;;;;;;;;;;;;;;;5050405;28;20412;-69
2020/12/03 14:49:57;;;;;;;;;;;;;;;;;;5086265;28;20351;-68
2020/12/03 14:52:23;;;;;;;;;;;;;;;;;;5078417;28;19916;-70
2020/12/03 14:54:50;;;;;;;;;;;;;;;;;;5043793;28;19920;-70
2020/12/03 14:57:16;;;;;;;;;;;;;;;;;;5058080;28;19927;-69
2020/12/03 14:59:41;;;;;;;;;;;;;;;;;;5059489;28;19918;-69
2020/12/03 15:02:14;;;;;;;;;;;;;;;;;;5073442;28;20014;-70
2020/12/03 15:04:39;;;;;;;;;;;;;;;;;;5070996;28;19942;-68
2020/12/03 15:07:05;;;;;;;;;;;;;;;;;;5090638;28;19916;-68
2020/12/03 15:09:32;;;;;;;;;;;;;;;;;;5093662;28;19924;-69
2020/12/03 15:11:58;;;;;;;;;;;;;;;;;;5069127;28;19916;-68
2020/12/03 15:14:24;;;;;;;;;;;;;;;;;;5075326;28;20399;-68
2020/12/03 15:16:49;;;;;;;;;;;;;;;;;;5068831;28;19931;-69
2020/12/03 15:19:15;;;;;;;;;;;;;;;;;;5066138;28;20043;-68
2020/12/03 15:21:40;;;;;;;;;;;;;;;;;;5067507;28;19920;-68
2020/12/03 15:24:06;;;;;;;;;;;;;;;;;;5059948;28;19916;-70
2020/12/03 15:26:31;;;;;;;;;;;;;;;;;;5066058;28;19916;-70
2020/12/03 15:28:57;;;;;;;;;;;;;;;;;;5070075;28;19924;-70
2020/12/03 15:31:22;;;;;;;;;;;;;;;;;;5105261;28;19924;-69
2020/12/03 15:33:48;;;;;;;;;;;;;;;;;;5052340;28;19921;-69
2020/12/03 15:36:13;;;;;;;;;;;;;;;;;;5051190;28;19928;-69
2020/12/03 15:38:39;;;;;;;;;;;;;;;;;;5050848;28;19971;-69
2020/12/03 15:41:04;;;;;;;;;;;;;;;;;;5050943;28;19932;-68
2020/12/03 15:43:30;;;;;;;;;;;;;;;;;;5052687;28;19917;-70
2020/12/03 15:45:56;;;;;;;;;;;;;;;;;;5054797;28;19917;-69
2020/12/03 15:48:28;;;;;;;;;;;;;;;;;;5036578;28;19924;-70
2020/12/03 15:50:55;;;;;;;;;;;;;;;;;;5062202;28;20262;-69
2020/12/03 15:53:21;;;;;;;;;;;;;;;;;;5066138;28;20373;-70
2020/12/03 15:55:46;;;;;;;;;;;;;;;;;;5050251;28;19925;-72
2020/12/03 15:58:12;;;;;;;;;;;;;;;;;;5049848;28;20289;-69
2020/12/03 16:00:38;;;;;;;;;;;;;;;;;;5049362;28;19917;-69
2020/12/03 16:03:04;;;;;;;;;;;;;;;;;;5049163;28;19924;-70
2020/12/03 16:05:29;;;;;;;;;;;;;;;;;;5032160;28;20051;-70
2020/12/03 16:07:55;;;;;;;;;;;;;;;;;;5049722;28;19921;-69
2020/12/03 16:10:21;;;;;;;;;;;;;;;;;;5049226;28;20008;-69
2020/12/03 16:12:46;;;;;;;;;;;;;;;;;;5032947;28;19940;-68
2020/12/03 16:15:13;;;;;;;;;;;;;;;;;;5065480;28;19924;-69
2020/12/03 16:17:38;;;;;;;;;;;;;;;;;;5065990;28;20007;-69
2020/12/03 16:20:04;;;;;;;;;;;;;;;;;;5032555;28;20313;-69
2020/12/03 16:22:29;;;;;;;;;;;;;;;;;;5065640;28;20424;-70
2020/12/03 16:24:55;;;;;;;;;;;;;;;;;;5016692;28;19931;-69
2020/12/03 16:27:20;;;;;;;;;;;;;;;;;;5049545;28;19917;-71
2020/12/03 16:29:46;;;;;;;;;;;;;;;;;;5033081;28;20058;-70
2020/12/03 16:32:11;;;;;;;;;;;;;;;;;;5050838;28;19967;-70
2020/12/03 16:34:37;;;;;;;;;;;;;;;;;;5049114;28;20005;-70
2020/12/03 16:37:03;;;;;;;;;;;;;;;;;;5016628;28;20399;-70
2020/12/03 16:39:29;;;;;;;;;;;;;;;;;;5049515;28;20519;-70
2020/12/03 16:41:55;;;;;;;;;;;;;;;;;;5049071;28;19921;-70
2020/12/03 16:44:20;;;;;;;;;;;;;;;;;;5065325;28;19970;-70
2020/12/03 16:46:46;;;;;;;;;;;;;;;;;;5048977;28;19984;-70
2020/12/03 16:49:15;;;;;;;;;;;;;;;;;;5064838;28;19993;-70
2020/12/03 16:51:44;;;;;;;;;;;;;;;;;;5048846;28;20388;-70
2020/12/03 16:54:10;;;;;;;;;;;;;;;;;;5081823;28;19921;-70
2020/12/03 16:56:37;;;;;;;;;;;;;;;;;;5048555;28;19921;-71
2020/12/03 16:59:02;;;;;;;;;;;;;;;;;;5081403;28;19921;-68